Terminal Aerodrome Forecast
Issued by NWS Albuquerque, NM

Home | Current Version | Previous Version | Text Only | Print | Product List | Glossary On
Versions: 1 2 3 4 5 6 7 8 9 10 11 12 13 14 15 16
000
FTUS45 KABQ 041100 RRA
TAFABQ
TAF
KABQ 041144Z 0412/0512 VRB06KT P6SM VCSH BKN090
      TEMPO 0413/0415 -SHRA SCT030 BKN050
     FM041600 18006KT P6SM VCSH BKN080
     FM042000 17012KT P6SM VCTS BKN080CB
     FM042200 10015G25KT P6SM -SHRA OVC070
      TEMPO 0501/0505 TSRA BKN040CB=

USA.gov is the U.S. government's official web portal to all federal, state and local government web resources and services.